Time;durP1;ratioP1;P1;durP2;ratioP2;P2;SDS_P1;SDS_P2;PMS_P1;PMS_P2;Temp;Humidity;BMP_temperature;BMP_pressure;BME280_temperature;BME280_humidity;BME280_pressure;Samples;Min_cycle;Max_cycle;Signal;HPM_P1;HPM_P2
2023/10/31 00:01:49;;;;;;;4.28;2.20;;;13.90;99.90;;;;;;5004400;28;20513;-67
2023/10/31 00:04:15;;;;;;;5.10;2.22;;;13.90;99.90;;;;;;5004358;28;20065;-67
2023/10/31 00:06:41;;;;;;;3.63;1.95;;;13.90;99.90;;;;;;5004402;28;20040;-67
2023/10/31 00:09:07;;;;;;;4.00;1.98;;;13.90;99.90;;;;;;5004686;28;20034;-67
2023/10/31 00:11:32;;;;;;;2.10;1.65;;;13.90;99.90;;;;;;5006284;28;20587;-67
2023/10/31 00:13:58;;;;;;;8.98;2.65;;;14.00;99.90;;;;;;5007893;28;20440;-67
2023/10/31 00:16:24;;;;;;;3.50;2.05;;;14.00;99.90;;;;;;5008237;28;20104;-67
2023/10/31 00:18:50;;;;;;;4.43;2.00;;;14.00;99.90;;;;;;5003262;28;20136;-67
2023/10/31 00:21:15;;;;;;;4.20;2.20;;;14.00;99.90;;;;;;5006553;28;20060;-67
2023/10/31 00:23:48;;;;;;;2.95;2.08;;;14.00;99.90;;;;;;5007720;28;20038;-67
2023/10/31 00:26:15;;;;;;;3.13;2.10;;;14.00;99.90;;;;;;5008195;28;20045;-67
2023/10/31 00:28:48;;;;;;;5.60;2.38;;;14.10;99.90;;;;;;5006487;28;20036;-67
2023/10/31 00:31:14;;;;;;;4.20;2.13;;;14.10;99.90;;;;;;5007329;28;20034;-67
2023/10/31 00:33:40;;;;;;;3.83;2.03;;;14.00;99.90;;;;;;5039151;28;20045;-67
2023/10/31 00:36:06;;;;;;;5.18;2.17;;;14.00;99.90;;;;;;5007570;28;20042;-67
2023/10/31 00:38:32;;;;;;;2.80;2.00;;;14.00;99.90;;;;;;5022254;28;20486;-67
2023/10/31 00:40:58;;;;;;;4.15;2.20;;;14.00;99.90;;;;;;5006062;28;20045;-67
2023/10/31 00:43:23;;;;;;;4.28;2.42;;;14.00;99.90;;;;;;5007432;28;20064;-67
2023/10/31 00:45:49;;;;;;;6.85;2.80;;;14.00;99.90;;;;;;5007827;28;20097;-67
2023/10/31 00:48:15;;;;;;;5.40;2.30;;;14.00;99.90;;;;;;5006234;28;20107;-67
2023/10/31 00:50:41;;;;;;;4.70;2.03;;;14.00;99.90;;;;;;5005739;28;20063;-67
2023/10/31 00:53:08;;;;;;;5.57;2.03;;;14.00;99.90;;;;;;5007289;28;20083;-67
2023/10/31 00:55:34;;;;;;;4.40;2.30;;;14.00;99.90;;;;;;5007369;28;20105;-67
2023/10/31 00:57:59;;;;;;;4.00;2.25;;;14.00;99.90;;;;;;5007258;28;20125;-67
2023/10/31 01:00:25;;;;;;;5.15;2.63;;;13.90;99.90;;;;;;5005524;28;20037;-66
2023/10/31 01:02:51;;;;;;;5.15;2.63;;;14.00;99.90;;;;;;5007018;28;20513;-67
2023/10/31 01:05:17;;;;;;;4.65;2.58;;;13.90;99.90;;;;;;5005735;28;20095;-66
2023/10/31 01:07:42;;;;;;;6.82;2.08;;;13.90;99.90;;;;;;5006962;28;20034;-67
2023/10/31 01:10:08;;;;;;;7.43;2.47;;;13.90;99.90;;;;;;5005589;28;20033;-66
2023/10/31 01:12:34;;;;;;;3.15;2.30;;;13.90;99.90;;;;;;5005627;28;20034;-66
2023/10/31 01:15:01;;;;;;;6.90;2.80;;;13.80;99.90;;;;;;5038703;28;20478;-66
2023/10/31 01:17:26;;;;;;;3.38;2.58;;;13.80;99.90;;;;;;5005511;28;20026;-66
2023/10/31 01:19:53;;;;;;;5.10;2.40;;;13.80;99.90;;;;;;5005147;28;20056;-66
2023/10/31 01:22:18;;;;;;;6.65;2.47;;;13.80;99.90;;;;;;5004713;28;20092;-66
2023/10/31 01:24:44;;;;;;;6.05;2.67;;;13.80;99.90;;;;;;4998754;28;20040;-65
2023/10/31 01:27:10;;;;;;;3.78;2.47;;;13.70;99.90;;;;;;5005288;28;20041;-66
2023/10/31 01:29:36;;;;;;;5.03;2.45;;;13.70;99.90;;;;;;5006328;28;20065;-67
2023/10/31 01:32:01;;;;;;;4.47;2.63;;;13.70;99.90;;;;;;5038055;28;20080;-66
2023/10/31 01:34:27;;;;;;;4.68;2.50;;;13.70;99.90;;;;;;5006434;28;20033;-65
2023/10/31 01:36:53;;;;;;;3.08;2.10;;;13.70;99.90;;;;;;5005125;28;20038;-66
2023/10/31 01:39:19;;;;;;;4.95;2.22;;;13.70;99.90;;;;;;5004862;28;20058;-66
2023/10/31 01:41:45;;;;;;;3.35;2.30;;;13.70;99.90;;;;;;5001177;28;20041;-66
2023/10/31 01:44:10;;;;;;;3.50;1.95;;;13.70;99.90;;;;;;5006226;28;20080;-67
2023/10/31 01:46:36;;;;;;;4.65;1.80;;;13.70;99.90;;;;;;5003980;28;20060;-66
2023/10/31 01:49:03;;;;;;;2.53;1.88;;;13.70;99.90;;;;;;5004854;28;20491;-66
2023/10/31 01:51:29;;;;;;;3.30;2.05;;;13.60;99.90;;;;;;5006269;28;20033;-66
2023/10/31 01:53:56;;;;;;;3.80;2.17;;;13.60;99.90;;;;;;5003721;28;20029;-66
2023/10/31 01:56:22;;;;;;;5.13;2.10;;;13.60;99.90;;;;;;5006380;28;20033;-66
2023/10/31 01:58:49;;;;;;;4.05;2.50;;;13.60;99.90;;;;;;5004786;28;20033;-67
2023/10/31 02:01:16;;;;;;;5.88;2.55;;;13.60;99.90;;;;;;5004726;28;20070;-66
2023/10/31 02:03:42;;;;;;;5.38;2.42;;;13.60;99.90;;;;;;5004153;28;20633;-66
2023/10/31 02:06:08;;;;;;;3.28;2.28;;;13.60;99.90;;;;;;5004346;28;20100;-66
2023/10/31 02:08:34;;;;;;;4.47;2.65;;;13.60;99.90;;;;;;5002938;28;20092;-66
2023/10/31 02:11:00;;;;;;;2.78;2.10;;;13.60;99.90;;;;;;5033822;28;20041;-66
2023/10/31 02:13:25;;;;;;;5.07;2.70;;;13.60;99.90;;;;;;5004216;28;20114;-66
2023/10/31 02:15:52;;;;;;;4.57;2.65;;;13.60;99.90;;;;;;5005702;28;20026;-66
2023/10/31 02:18:18;;;;;;;4.70;2.95;;;13.60;99.90;;;;;;5005849;28;20153;-66
2023/10/31 02:20:44;;;;;;;2.97;2.38;;;13.60;99.90;;;;;;5001047;28;20079;-66
2023/10/31 02:23:10;;;;;;;4.15;2.80;;;13.60;99.90;;;;;;5004008;28;20743;-66
2023/10/31 02:25:36;;;;;;;5.00;3.00;;;13.60;99.90;;;;;;5004069;28;20453;-66
2023/10/31 02:28:01;;;;;;;6.65;2.67;;;13.60;99.90;;;;;;5005561;28;20053;-66
2023/10/31 02:30:27;;;;;;;3.65;2.40;;;13.60;99.90;;;;;;5004481;28;20565;-66
2023/10/31 02:32:53;;;;;;;5.38;2.42;;;13.60;99.90;;;;;;5003251;28;20083;-66
2023/10/31 02:35:20;;;;;;;5.00;2.65;;;13.60;99.90;;;;;;5005464;28;20120;-66
2023/10/31 02:37:46;;;;;;;5.35;3.00;;;13.60;99.90;;;;;;4998374;28;20112;-66
2023/10/31 02:40:13;;;;;;;3.15;2.38;;;13.60;99.90;;;;;;5001275;28;20037;-66
2023/10/31 02:42:39;;;;;;;3.67;2.58;;;13.60;99.90;;;;;;5004168;28;20711;-67
2023/10/31 02:45:06;;;;;;;4.43;2.83;;;13.60;99.90;;;;;;5005237;28;20052;-65
2023/10/31 02:47:32;;;;;;;6.32;2.90;;;13.60;99.90;;;;;;5003722;28;20037;-66
2023/10/31 02:49:57;;;;;;;4.47;2.40;;;13.60;99.90;;;;;;5003060;28;20060;-66
2023/10/31 02:52:23;;;;;;;3.00;2.38;;;13.60;99.90;;;;;;5003650;28;20044;-66
2023/10/31 02:54:49;;;;;;;6.43;2.70;;;13.60;99.90;;;;;;5003079;28;20096;-66
2023/10/31 02:57:16;;;;;;;5.85;2.72;;;13.60;99.90;;;;;;5005319;28;20030;-67
2023/10/31 02:59:41;;;;;;;7.28;2.70;;;13.60;99.90;;;;;;4987207;28;20070;-66
2023/10/31 03:02:07;;;;;;;3.60;2.63;;;13.50;99.90;;;;;;5005138;28;20605;-66
2023/10/31 03:04:33;;;;;;;5.47;3.00;;;13.50;99.90;;;;;;5003376;28;20422;-66
2023/10/31 03:06:59;;;;;;;4.30;2.33;;;13.50;99.90;;;;;;5003834;28;20022;-66
2023/10/31 03:09:25;;;;;;;3.22;2.40;;;13.50;99.90;;;;;;5032702;28;20080;-66
2023/10/31 03:11:50;;;;;;;5.60;3.15;;;13.50;99.90;;;;;;5003447;28;20442;-66
2023/10/31 03:14:16;;;;;;;5.05;2.90;;;13.60;99.90;;;;;;5004681;28;20617;-66
2023/10/31 03:16:42;;;;;;;4.00;2.85;;;13.60;99.90;;;;;;5003663;28;20133;-66
2023/10/31 03:19:08;;;;;;;3.78;2.67;;;13.60;99.90;;;;;;5005109;28;20077;-66
2023/10/31 03:21:34;;;;;;;3.75;2.53;;;13.60;99.90;;;;;;5036548;28;20057;-65
2023/10/31 03:24:00;;;;;;;3.35;2.42;;;13.60;99.90;;;;;;5003436;28;20784;-66
2023/10/31 03:26:25;;;;;;;4.50;2.60;;;13.60;99.90;;;;;;5004456;28;20112;-66
2023/10/31 03:28:56;;;;;;;3.03;2.50;;;13.60;99.90;;;;;;5003478;28;20120;-66
2023/10/31 03:31:23;;;;;;;5.50;2.53;;;13.60;99.90;;;;;;5004541;28;20065;-66
2023/10/31 03:33:49;;;;;;;4.63;2.67;;;13.60;99.90;;;;;;4995986;28;20056;-67
2023/10/31 03:36:15;;;;;;;6.85;3.20;;;13.60;99.90;;;;;;5003425;28;20065;-66
2023/10/31 03:38:41;;;;;;;5.32;2.90;;;13.60;99.90;;;;;;5003332;28;20054;-66
2023/10/31 03:41:08;;;;;;;3.70;2.78;;;13.60;99.90;;;;;;5004711;28;20117;-66
2023/10/31 03:43:33;;;;;;;4.30;2.45;;;13.60;99.90;;;;;;4999968;28;20566;-66
2023/10/31 03:46:00;;;;;;;5.10;2.97;;;13.60;99.90;;;;;;5008456;28;20287;-66
2023/10/31 03:48:26;;;;;;;5.22;3.30;;;13.60;99.90;;;;;;5008972;28;20034;-66
2023/10/31 03:50:52;;;;;;;3.63;2.58;;;13.60;99.90;;;;;;5007040;28;20025;-66
2023/10/31 03:53:18;;;;;;;6.60;2.92;;;13.60;99.90;;;;;;5008521;28;20026;-66
2023/10/31 03:55:44;;;;;;;6.50;3.38;;;13.60;99.90;;;;;;5008642;28;20032;-66
2023/10/31 03:58:10;;;;;;;4.63;2.85;;;13.60;99.90;;;;;;5006797;28;20129;-66
2023/10/31 04:00:38;;;;;;;5.10;3.65;;;13.60;99.90;;;;;;5006737;28;20040;-66
2023/10/31 04:03:04;;;;;;;7.65;4.45;;;13.70;99.90;;;;;;5008357;28;20113;-66
2023/10/31 04:05:30;;;;;;;7.30;3.22;;;13.60;99.90;;;;;;5008525;28;20145;-66
2023/10/31 04:07:55;;;;;;;5.82;3.50;;;13.70;99.90;;;;;;5008472;28;20042;-66
2023/10/31 04:10:21;;;;;;;8.30;3.72;;;13.60;99.90;;;;;;5005609;28;20041;-66
2023/10/31 04:12:48;;;;;;;9.32;4.07;;;13.70;99.90;;;;;;5007240;28;20034;-66
2023/10/31 04:15:14;;;;;;;8.27;3.95;;;13.70;99.90;;;;;;5000912;28;20040;-66
2023/10/31 04:17:40;;;;;;;6.30;3.35;;;13.70;99.90;;;;;;5007137;28;20045;-66
2023/10/31 04:20:06;;;;;;;5.82;3.50;;;13.70;99.90;;;;;;5007115;28;20038;-66
2023/10/31 04:22:32;;;;;;;8.00;4.00;;;13.70;99.90;;;;;;5002909;28;20399;-66
2023/10/31 04:24:57;;;;;;;4.28;3.58;;;13.70;99.90;;;;;;5008160;28;20033;-66
2023/10/31 04:27:24;;;;;;;6.47;4.28;;;13.70;99.90;;;;;;5007713;28;20064;-66
2023/10/31 04:29:50;;;;;;;6.22;3.38;;;13.70;99.90;;;;;;5007437;28;20033;-66
2023/10/31 04:32:16;;;;;;;10.15;4.75;;;13.70;99.90;;;;;;5007925;28;20425;-66
2023/10/31 04:34:42;;;;;;;7.47;4.15;;;13.70;99.90;;;;;;5007565;28;20393;-67
2023/10/31 04:37:07;;;;;;;5.82;3.65;;;13.70;99.90;;;;;;5005477;28;20064;-67
2023/10/31 04:39:33;;;;;;;7.15;4.28;;;13.70;99.90;;;;;;5007739;28;20045;-66
2023/10/31 04:41:59;;;;;;;5.22;3.97;;;13.70;99.90;;;;;;5007569;28;20034;-66
2023/10/31 04:44:24;;;;;;;7.55;4.15;;;13.80;99.90;;;;;;5007330;28;20036;-66
2023/10/31 04:46:50;;;;;;;7.80;3.97;;;13.70;99.90;;;;;;5007613;28;20132;-66
2023/10/31 04:49:16;;;;;;;6.28;4.03;;;13.70;99.90;;;;;;5007691;28;20297;-66
2023/10/31 04:51:43;;;;;;;7.35;3.88;;;13.70;99.90;;;;;;5007270;28;20121;-66
2023/10/31 04:54:09;;;;;;;4.40;3.35;;;13.80;99.90;;;;;;5007659;28;20038;-66
2023/10/31 04:56:34;;;;;;;4.78;3.92;;;13.80;99.90;;;;;;5006901;28;20032;-66
2023/10/31 04:59:00;;;;;;;7.03;4.25;;;13.80;99.90;;;;;;5007560;28;20030;-66
2023/10/31 05:01:26;;;;;;;5.90;4.00;;;13.80;99.90;;;;;;5007247;28;20041;-65
2023/10/31 05:03:53;;;;;;;5.43;3.92;;;13.90;99.90;;;;;;5007198;28;20100;-65
2023/10/31 05:06:22;;;;;;;6.50;4.40;;;13.90;99.90;;;;;;5007270;28;20037;-66
2023/10/31 05:08:49;;;;;;;8.85;4.72;;;13.90;99.90;;;;;;4999289;28;20037;-66
2023/10/31 05:11:18;;;;;;;6.18;3.90;;;13.90;99.90;;;;;;5006782;28;20034;-66
2023/10/31 05:13:45;;;;;;;4.97;3.50;;;13.90;99.90;;;;;;5006989;28;20136;-66
2023/10/31 05:16:11;;;;;;;4.97;3.85;;;13.90;99.90;;;;;;5007083;28;20044;-66
2023/10/31 05:18:38;;;;;;;4.40;3.53;;;13.90;99.90;;;;;;5007229;28;20041;-66
2023/10/31 05:21:05;;;;;;;6.45;4.65;;;13.90;99.90;;;;;;5006784;28;20065;-66
2023/10/31 05:23:30;;;;;;;6.43;3.97;;;13.90;99.90;;;;;;5038305;28;20042;-66
2023/10/31 05:25:56;;;;;;;5.30;3.58;;;13.90;99.90;;;;;;5006289;28;20406;-66
2023/10/31 05:28:23;;;;;;;6.03;3.92;;;13.80;99.90;;;;;;5006700;28;20142;-66
2023/10/31 05:30:49;;;;;;;4.20;3.10;;;13.90;99.90;;;;;;4998737;28;20033;-66
2023/10/31 05:33:16;;;;;;;5.88;3.75;;;13.90;99.90;;;;;;5006295;28;20052;-66
2023/10/31 05:35:42;;;;;;;5.35;3.90;;;13.90;99.90;;;;;;5005022;28;20033;-66
2023/10/31 05:38:08;;;;;;;4.45;3.47;;;14.00;99.90;;;;;;5006764;28;20121;-66
2023/10/31 05:40:35;;;;;;;4.30;3.22;;;14.00;99.90;;;;;;5006501;28;20108;-66
2023/10/31 05:43:02;;;;;;;3.90;3.30;;;14.00;99.90;;;;;;5005024;28;20644;-66
2023/10/31 05:45:28;;;;;;;4.35;3.13;;;14.00;99.90;;;;;;5003762;28;20044;-66
2023/10/31 05:47:53;;;;;;;4.35;3.00;;;14.00;99.90;;;;;;5003616;28;20033;-66
2023/10/31 05:50:19;;;;;;;4.53;3.25;;;14.00;99.90;;;;;;5005136;28;20049;-66
2023/10/31 05:52:45;;;;;;;3.80;3.08;;;14.10;99.90;;;;;;5004938;28;20026;-66
2023/10/31 05:55:11;;;;;;;9.55;3.67;;;14.10;99.90;;;;;;4997270;28;20038;-66
2023/10/31 05:57:36;;;;;;;4.13;3.10;;;14.10;99.90;;;;;;5004217;28;20097;-67
2023/10/31 06:00:02;;;;;;;5.57;3.45;;;14.10;99.90;;;;;;5004886;28;20482;-65
2023/10/31 06:02:37;;;;;;;5.80;3.00;;;14.10;99.90;;;;;;5005566;28;20046;-66
2023/10/31 06:05:04;;;;;;;4.60;3.20;;;14.10;99.90;;;;;;5004791;28;20296;-67
2023/10/31 06:07:30;;;;;;;4.38;3.08;;;14.10;99.90;;;;;;5003838;28;20125;-67
2023/10/31 06:09:56;;;;;;;4.40;2.72;;;14.10;99.90;;;;;;5004580;28;20132;-68
2023/10/31 06:12:22;;;;;;;8.30;3.10;;;14.10;99.90;;;;;;5004958;28;20040;-68
2023/10/31 06:14:47;;;;;;;4.18;2.90;;;14.10;99.90;;;;;;5004204;28;20026;-67
2023/10/31 06:17:13;;;;;;;2.70;2.42;;;14.10;99.90;;;;;;5004266;28;20037;-68
2023/10/31 06:19:44;;;;;;;7.50;3.42;;;14.00;99.90;;;;;;5004286;28;20075;-67
2023/10/31 06:22:11;;;;;;;2.92;2.10;;;13.90;99.90;;;;;;5001416;28;20030;-67
2023/10/31 06:24:36;;;;;;;4.53;2.90;;;13.90;99.90;;;;;;5004885;28;20462;-68
2023/10/31 06:27:03;;;;;;;13.25;8.25;;;14.00;99.90;;;;;;5004369;28;20133;-68
2023/10/31 06:29:28;;;;;;;9.25;6.43;;;14.00;99.90;;;;;;5004745;28;20088;-68
2023/10/31 06:31:54;;;;;;;4.88;3.58;;;14.10;99.90;;;;;;5004256;28;20288;-68
2023/10/31 06:34:20;;;;;;;8.35;7.03;;;14.10;99.90;;;;;;5004756;28;20033;-67
2023/10/31 06:36:46;;;;;;;20.02;17.73;;;14.10;99.90;;;;;;5004672;28;20719;-68
2023/10/31 06:39:11;;;;;;;19.33;17.40;;;14.20;99.90;;;;;;5004622;28;20072;-67
2023/10/31 06:41:37;;;;;;;9.80;8.82;;;14.10;99.90;;;;;;5001231;28;20084;-67
2023/10/31 06:44:03;;;;;;;6.93;6.22;;;14.10;99.90;;;;;;5004258;28;20038;-68
2023/10/31 06:46:29;;;;;;;2.90;2.60;;;14.10;99.90;;;;;;5004406;28;20352;-68
2023/10/31 06:48:55;;;;;;;4.88;3.00;;;14.10;99.90;;;;;;5004803;28;20458;-68
2023/10/31 06:51:20;;;;;;;4.25;2.78;;;14.10;99.90;;;;;;5004340;28;20647;-67
2023/10/31 06:53:46;;;;;;;6.95;3.35;;;14.20;99.90;;;;;;5003446;28;20646;-67
2023/10/31 06:56:12;;;;;;;10.88;8.77;;;14.10;99.90;;;;;;5004289;28;20137;-67
2023/10/31 06:58:38;;;;;;;5.55;2.65;;;14.20;99.90;;;;;;5003558;28;20117;-68
2023/10/31 07:01:03;;;;;;;8.15;4.32;;;14.20;99.90;;;;;;5003794;28;20033;-67
2023/10/31 07:03:29;;;;;;;7.82;4.13;;;14.10;99.90;;;;;;5002774;28;20034;-68
2023/10/31 07:05:56;;;;;;;4.50;3.40;;;14.00;99.90;;;;;;4997055;28;20501;-68
2023/10/31 07:08:23;;;;;;;2.90;2.13;;;13.80;99.90;;;;;;5004270;28;20045;-68
2023/10/31 07:10:49;;;;;;;5.30;2.90;;;13.70;99.90;;;;;;5004250;28;20057;-68
2023/10/31 07:13:14;;;;;;;3.78;2.83;;;13.70;99.90;;;;;;5003988;28;20877;-68
2023/10/31 07:15:40;;;;;;;3.85;1.73;;;13.70;99.90;;;;;;5003800;28;20103;-67
2023/10/31 07:18:07;;;;;;;2.03;1.30;;;13.70;99.90;;;;;;5002660;28;20166;-68
2023/10/31 07:20:33;;;;;;;4.57;1.30;;;13.70;99.90;;;;;;4985674;28;20088;-65
2023/10/31 07:22:59;;;;;;;4.15;1.52;;;13.70;99.90;;;;;;5002487;28;20042;-68
2023/10/31 07:25:25;;;;;;;3.05;1.55;;;13.60;99.90;;;;;;5002348;28;20048;-68
2023/10/31 07:27:50;;;;;;;3.47;2.17;;;13.60;99.90;;;;;;5003556;28;20116;-68
2023/10/31 07:30:16;;;;;;;1.90;1.23;;;13.50;99.90;;;;;;5003698;28;20389;-68
2023/10/31 07:32:42;;;;;;;2.13;1.58;;;13.50;99.90;;;;;;5003598;28;20034;-68
2023/10/31 07:35:08;;;;;;;4.53;2.78;;;13.40;99.90;;;;;;5003462;28;20753;-69
2023/10/31 07:37:34;;;;;;;4.60;2.40;;;13.40;99.90;;;;;;5010795;28;20088;-69
2023/10/31 07:40:00;;;;;;;3.97;2.47;;;13.50;99.90;;;;;;5004095;28;20054;-66
2023/10/31 07:42:26;;;;;;;6.15;3.55;;;13.50;99.90;;;;;;5003395;28;20037;-68
2023/10/31 07:44:52;;;;;;;3.17;1.90;;;13.50;99.90;;;;;;5003732;28;20076;-69
2023/10/31 07:47:17;;;;;;;1.50;1.23;;;13.30;99.90;;;;;;4994373;28;20103;-69
2023/10/31 07:49:43;;;;;;;1.35;1.10;;;13.50;99.90;;;;;;5003750;28;20403;-69
2023/10/31 07:52:09;;;;;;;2.45;1.70;;;13.60;99.90;;;;;;5003981;28;20026;-68
2023/10/31 07:54:35;;;;;;;4.65;3.00;;;13.60;99.90;;;;;;5003015;28;20037;-69
2023/10/31 07:57:01;;;;;;;4.57;3.53;;;13.70;99.90;;;;;;5003165;28;20080;-68
2023/10/31 07:59:27;;;;;;;3.92;3.15;;;13.70;99.90;;;;;;5003085;28;20534;-68
2023/10/31 08:01:53;;;;;;;1.60;1.50;;;13.80;99.90;;;;;;4998806;28;20045;-68
2023/10/31 08:04:18;;;;;;;3.05;1.92;;;13.80;99.90;;;;;;5003078;28;20076;-67
2023/10/31 08:06:44;;;;;;;2.60;1.90;;;13.80;99.90;;;;;;5002340;28;20056;-68
2023/10/31 08:09:10;;;;;;;2.45;1.90;;;13.90;99.90;;;;;;5000921;28;20049;-68
2023/10/31 08:11:36;;;;;;;3.65;1.90;;;13.80;99.90;;;;;;5003086;28;20038;-68
2023/10/31 08:14:02;;;;;;;2.63;2.20;;;13.70;99.90;;;;;;4998538;28;20076;-67
2023/10/31 08:16:28;;;;;;;4.00;1.90;;;13.80;99.90;;;;;;4998865;28;20033;-69
2023/10/31 08:18:54;;;;;;;4.97;1.35;;;13.80;99.90;;;;;;5002655;28;20860;-68
2023/10/31 08:21:20;;;;;;;2.95;2.17;;;13.70;99.90;;;;;;5001749;28;20038;-69
2023/10/31 08:23:46;;;;;;;3.60;2.10;;;13.60;99.90;;;;;;5017598;28;20041;-68
2023/10/31 08:26:13;;;;;;;8.35;3.88;;;13.70;99.90;;;;;;5004177;28;20037;-68
2023/10/31 08:28:39;;;;;;;5.95;3.05;;;13.90;99.90;;;;;;5000770;28;20030;-69
2023/10/31 08:31:05;;;;;;;6.05;2.17;;;14.00;99.90;;;;;;5000747;28;20042;-69
2023/10/31 08:33:30;;;;;;;10.05;5.50;;;14.10;99.90;;;;;;5003648;28;20022;-69
2023/10/31 08:35:56;;;;;;;2.20;1.42;;;14.10;99.90;;;;;;5001721;28;20057;-70
2023/10/31 08:38:22;;;;;;;3.47;1.90;;;14.20;99.90;;;;;;5006855;28;20026;-70
2023/10/31 08:40:49;;;;;;;5.40;2.90;;;14.10;99.90;;;;;;5006369;28;20050;-69
2023/10/31 08:43:15;;;;;;;2.88;1.77;;;14.10;99.90;;;;;;5006816;28;20041;-69
2023/10/31 08:45:40;;;;;;;1.13;0.85;;;14.00;99.90;;;;;;5007159;28;20036;-69
2023/10/31 08:48:06;;;;;;;3.58;1.08;;;14.10;99.90;;;;;;5007372;28;20034;-69
2023/10/31 08:50:32;;;;;;;1.10;0.75;;;14.20;99.90;;;;;;5005047;28;20742;-69
2023/10/31 08:52:57;;;;;;;0.93;0.90;;;14.20;99.90;;;;;;5006990;28;20046;-69
2023/10/31 08:55:23;;;;;;;1.13;0.70;;;14.20;99.90;;;;;;5004075;28;20022;-69
2023/10/31 08:57:50;;;;;;;4.85;1.13;;;14.20;99.90;;;;;;5006521;28;20029;-69
2023/10/31 09:00:16;;;;;;;1.25;0.95;;;14.30;99.90;;;;;;5005419;28;20052;-69
2023/10/31 09:02:43;;;;;;;1.30;0.90;;;14.10;99.90;;;;;;5006484;28;20044;-68
2023/10/31 09:05:08;;;;;;;2.17;0.85;;;14.50;99.90;;;;;;5004302;28;20040;-69
2023/10/31 09:07:34;;;;;;;0.73;0.73;;;15.20;99.90;;;;;;5006630;28;20038;-69
2023/10/31 09:10:00;;;;;;;1.13;0.88;;;16.50;98.90;;;;;;5006836;28;20474;-69
2023/10/31 09:12:26;;;;;;;1.38;1.20;;;17.10;96.70;;;;;;5005898;28;20046;-69
2023/10/31 09:14:52;;;;;;;0.80;0.70;;;17.70;96.90;;;;;;5006608;28;20026;-69
2023/10/31 09:17:18;;;;;;;1.65;0.50;;;17.50;95.50;;;;;;5004750;28;20052;-69
2023/10/31 09:19:44;;;;;;;0.65;0.65;;;17.30;95.90;;;;;;5003663;28;20441;-69
2023/10/31 09:22:10;;;;;;;1.58;0.88;;;17.10;95.80;;;;;;5006844;28;20037;-68
2023/10/31 09:24:35;;;;;;;1.60;1.20;;;16.90;96.90;;;;;;5038408;28;20111;-68
2023/10/31 09:27:01;;;;;;;4.03;2.40;;;16.80;97.30;;;;;;5006500;28;20057;-69
2023/10/31 09:29:27;;;;;;;3.15;1.80;;;16.50;96.60;;;;;;5003663;28;20541;-69
2023/10/31 09:31:53;;;;;;;3.25;1.90;;;16.00;97.00;;;;;;5006009;28;20038;-66
2023/10/31 09:34:19;;;;;;;3.90;1.70;;;15.60;97.70;;;;;;5003094;28;20040;-67
2023/10/31 09:36:45;;;;;;;1.60;1.17;;;15.30;98.50;;;;;;5005867;28;20058;-68
2023/10/31 09:39:10;;;;;;;2.28;1.83;;;14.90;98.60;;;;;;5003363;28;20053;-68
2023/10/31 09:41:36;;;;;;;7.93;4.43;;;14.60;99.30;;;;;;5005900;28;20034;-68
2023/10/31 09:44:02;;;;;;;7.80;4.00;;;14.30;99.90;;;;;;5006157;28;20644;-68
2023/10/31 09:46:31;;;;;;;10.18;4.38;;;14.10;99.90;;;;;;5006265;28;20045;-68
2023/10/31 09:48:57;;;;;;;4.25;2.22;;;14.20;99.90;;;;;;5005981;28;20512;-68
2023/10/31 09:51:22;;;;;;;8.52;4.22;;;14.30;99.90;;;;;;5006256;28;20033;-68
2023/10/31 09:53:53;;;;;;;4.90;2.55;;;14.50;99.90;;;;;;5005984;28;20743;-68
2023/10/31 09:56:20;;;;;;;5.82;2.55;;;14.50;99.90;;;;;;5006204;28;20061;-68
2023/10/31 09:58:47;;;;;;;2.13;1.42;;;14.60;99.90;;;;;;5005968;28;20041;-68
2023/10/31 10:01:13;;;;;;;2.40;1.05;;;14.50;99.90;;;;;;5006410;28;20026;-68
2023/10/31 10:03:40;;;;;;;2.00;1.30;;;14.40;99.90;;;;;;5005197;28;20041;-66
2023/10/31 10:06:06;;;;;;;1.45;1.35;;;14.40;99.90;;;;;;5002729;28;20121;-69
2023/10/31 10:08:36;;;;;;;6.18;4.97;;;14.40;99.90;;;;;;4989159;28;20494;-68
2023/10/31 10:11:02;;;;;;;2.47;2.28;;;14.40;99.90;;;;;;5005399;28;20138;-66
2023/10/31 10:13:28;;;;;;;0.80;0.80;;;14.30;99.90;;;;;;5005258;28;20038;-68
2023/10/31 10:15:54;;;;;;;2.25;1.55;;;14.30;99.90;;;;;;5006057;28;20083;-69
2023/10/31 10:18:35;;;;;;;1.30;1.20;;;14.50;99.90;;;;;;5004071;28;20034;-67
2023/10/31 10:21:05;;;;;;;2.35;1.75;;;14.60;99.90;;;;;;5003671;28;20096;-68
2023/10/31 10:23:32;;;;;;;1.83;1.63;;;14.80;99.90;;;;;;5002251;28;20153;-69
2023/10/31 10:26:00;;;;;;;1.38;1.20;;;15.00;99.90;;;;;;5003751;28;20534;-68
2023/10/31 10:28:26;;;;;;;1.58;1.48;;;14.70;99.20;;;;;;5005681;28;20750;-69
2023/10/31 10:30:54;;;;;;;1.95;1.52;;;14.70;99.90;;;;;;5001878;28;20521;-69
2023/10/31 10:33:21;;;;;;;3.17;1.35;;;14.70;99.90;;;;;;5005078;28;20026;-69
2023/10/31 10:35:47;;;;;;;5.50;3.22;;;15.00;99.00;;;;;;5005416;28;20061;-69
2023/10/31 10:38:19;;;;;;;1.42;1.30;;;15.60;98.70;;;;;;5004161;28;20402;-68
2023/10/31 10:40:48;;;;;;;1.98;1.17;;;15.80;97.50;;;;;;5005210;28;20446;-69
2023/10/31 10:43:22;;;;;;;2.38;1.13;;;15.70;97.90;;;;;;5005205;28;20029;-69
2023/10/31 10:45:58;;;;;;;2.30;1.50;;;15.70;98.50;;;;;;5005384;28;20529;-68
2023/10/31 10:48:28;;;;;;;1.90;1.40;;;15.60;98.90;;;;;;5005176;28;20517;-69
2023/10/31 10:51:06;;;;;;;1.10;1.00;;;15.60;98.60;;;;;;5001945;28;20037;-68
2023/10/31 10:53:49;;;;;;;1.40;1.13;;;15.50;97.70;;;;;;5001985;28;20037;-68
2023/10/31 10:56:25;;;;;;;1.27;1.10;;;15.30;98.70;;;;;;5005332;28;20034;-68
2023/10/31 10:58:58;;;;;;;1.30;1.20;;;15.30;98.30;;;;;;4997222;28;20637;-68
2023/10/31 11:01:25;;;;;;;2.08;1.10;;;15.40;98.90;;;;;;5001613;28;20037;-68
2023/10/31 11:03:52;;;;;;;1.30;1.17;;;15.30;98.50;;;;;;5003136;28;20087;-68
2023/10/31 11:06:19;;;;;;;1.88;1.60;;;15.00;99.00;;;;;;5005171;28;20026;-69
2023/10/31 11:08:46;;;;;;;3.53;2.00;;;14.80;99.50;;;;;;5004882;28;20045;-69
2023/10/31 11:11:12;;;;;;;1.48;1.20;;;14.70;99.90;;;;;;5004446;28;20042;-68
2023/10/31 11:13:39;;;;;;;3.08;2.42;;;14.80;99.30;;;;;;5002136;28;20040;-69
2023/10/31 11:16:16;;;;;;;3.13;2.20;;;14.80;99.40;;;;;;5004363;28;20080;-70
2023/10/31 11:18:42;;;;;;;2.35;1.35;;;14.80;99.30;;;;;;5002997;28;20658;-69
2023/10/31 11:21:08;;;;;;;3.78;1.55;;;14.80;99.60;;;;;;5002070;28;20041;-69
2023/10/31 11:23:35;;;;;;;4.35;1.70;;;14.70;99.20;;;;;;5003365;28;20045;-69
2023/10/31 11:26:01;;;;;;;2.10;1.65;;;14.70;99.90;;;;;;5004454;28;20041;-68
2023/10/31 11:28:27;;;;;;;3.17;2.35;;;14.60;99.70;;;;;;5004745;28;20154;-69
2023/10/31 11:30:58;;;;;;;2.67;1.98;;;14.50;99.80;;;;;;5004529;28;20136;-68
2023/10/31 11:33:25;;;;;;;3.75;1.98;;;14.50;99.90;;;;;;5004643;28;20034;-69
2023/10/31 11:35:59;;;;;;;3.75;1.58;;;14.50;99.90;;;;;;5004972;28;20862;-69
2023/10/31 11:38:45;;;;;;;1.98;1.10;;;14.60;99.90;;;;;;5004731;28;20414;-69
2023/10/31 11:41:11;;;;;;;2.75;1.50;;;14.70;99.90;;;;;;5001552;28;20062;-69
2023/10/31 11:43:40;;;;;;;1.08;0.98;;;14.80;99.60;;;;;;5002400;28;20162;-69
2023/10/31 11:46:17;;;;;;;0.82;0.82;;;14.80;99.70;;;;;;5003149;28;20558;-69
2023/10/31 11:48:51;;;;;;;2.35;1.17;;;14.90;99.30;;;;;;5000731;28;20524;-69
2023/10/31 11:51:17;;;;;;;1.02;0.90;;;14.70;99.00;;;;;;5004158;28;20461;-69
2023/10/31 11:53:44;;;;;;;3.85;0.95;;;14.70;99.10;;;;;;5004105;28;20030;-69
2023/10/31 11:56:19;;;;;;;1.65;0.60;;;14.70;99.50;;;;;;5003037;28;20030;-68
2023/10/31 11:59:04;;;;;;;2.28;0.80;;;14.60;99.50;;;;;;5004874;28;20565;-68
2023/10/31 12:01:30;;;;;;;1.08;0.70;;;14.60;99.20;;;;;;5005119;28;20038;-68
2023/10/31 12:03:56;;;;;;;5.97;0.90;;;14.50;99.20;;;;;;5003989;28;20950;-68
2023/10/31 12:06:22;;;;;;;1.75;0.60;;;14.50;98.90;;;;;;5006535;28;20037;-69
2023/10/31 12:08:49;;;;;;;1.60;1.05;;;14.50;99.50;;;;;;5007554;28;20042;-68
2023/10/31 12:11:17;;;;;;;4.32;0.95;;;14.50;98.90;;;;;;5007210;28;20034;-68
2023/10/31 12:14:06;;;;;;;0.45;0.35;;;14.60;98.30;;;;;;5004970;28;20158;-69
2023/10/31 12:16:33;;;;;;;1.00;0.75;;;14.50;98.60;;;;;;4998421;28;20092;-68
2023/10/31 12:19:04;;;;;;;1.88;0.50;;;14.60;98.20;;;;;;5007147;28;20045;-68
2023/10/31 12:21:46;;;;;;;0.40;0.40;;;14.60;98.10;;;;;;5007923;28;20038;-68
2023/10/31 12:24:14;;;;;;;3.20;0.80;;;14.70;98.30;;;;;;5007320;28;20026;-68
2023/10/31 12:26:41;;;;;;;1.10;0.50;;;14.70;98.40;;;;;;5005713;28;20743;-68
2023/10/31 12:29:12;;;;;;;1.25;0.65;;;14.70;98.50;;;;;;5007531;28;20059;-68
2023/10/31 12:31:49;;;;;;;0.70;0.70;;;14.80;98.70;;;;;;5006377;28;20045;-68
2023/10/31 12:34:16;;;;;;;1.17;0.80;;;14.80;98.40;;;;;;5006079;28;20107;-68
2023/10/31 12:36:44;;;;;;;2.30;1.25;;;14.70;98.80;;;;;;5006933;28;20045;-68
2023/10/31 12:39:13;;;;;;;2.65;0.52;;;14.60;99.30;;;;;;5006723;28;20026;-68
2023/10/31 12:41:41;;;;;;;0.30;0.30;;;14.60;98.80;;;;;;5005615;28;20044;-68
2023/10/31 12:44:10;;;;;;;0.40;0.35;;;14.60;99.00;;;;;;5005877;28;20034;-68